createdAt,value
2019-02-25T00:00:13.750Z,4.40
2019-02-25T00:02:42.862Z,4.77
2019-02-25T00:05:11.939Z,4.90
2019-02-25T00:07:41.031Z,4.63
2019-02-25T00:10:10.119Z,4.67
2019-02-25T00:12:39.266Z,4.57
2019-02-25T00:15:08.439Z,5.07
2019-02-25T00:17:39.603Z,4.97
2019-02-25T00:20:10.057Z,4.40
2019-02-25T00:22:39.301Z,4.83
2019-02-25T00:25:08.829Z,5.00
2019-02-25T00:27:37.917Z,4.57
2019-02-25T00:30:07.057Z,4.70
2019-02-25T00:32:37.031Z,4.80
2019-02-25T00:35:06.256Z,5.30
2019-02-25T00:37:35.356Z,4.60
2019-02-25T00:40:04.747Z,5.33
2019-02-25T00:42:33.815Z,4.87
2019-02-25T00:45:02.915Z,5.30
2019-02-25T00:47:31.987Z,5.00
2019-02-25T00:50:01.123Z,4.83
2019-02-25T00:52:30.220Z,4.90
2019-02-25T00:54:59.290Z,5.03
2019-02-25T00:57:28.365Z,4.80
2019-02-25T00:59:57.457Z,5.63
2019-02-25T01:02:26.535Z,4.80
2019-02-25T01:04:55.621Z,4.97
2019-02-25T01:07:24.717Z,4.63
2019-02-25T01:09:53.891Z,4.37
2019-02-25T01:12:22.985Z,4.37
2019-02-25T01:14:52.083Z,4.60
2019-02-25T01:17:21.183Z,5.10
2019-02-25T01:19:50.261Z,4.67
2019-02-25T01:22:19.329Z,4.70
2019-02-25T01:24:48.428Z,4.80
2019-02-25T01:27:17.521Z,4.50
2019-02-25T01:29:46.598Z,4.43
2019-02-25T01:32:15.683Z,5.00
2019-02-25T01:34:44.863Z,4.40
2019-02-25T01:37:13.856Z,4.47
2019-02-25T01:39:42.952Z,4.27
2019-02-25T01:42:12.033Z,4.60
2019-02-25T01:44:41.109Z,4.33
2019-02-25T01:47:10.180Z,4.43
2019-02-25T01:49:39.278Z,5.00
2019-02-25T01:52:08.347Z,4.70
2019-02-25T01:54:37.446Z,4.13
2019-02-25T01:57:06.518Z,4.77
2019-02-25T01:59:35.626Z,4.70
2019-02-25T02:02:04.728Z,4.97
2019-02-25T02:04:33.801Z,5.03
2019-02-25T02:07:02.900Z,4.60
2019-02-25T02:09:31.974Z,4.77
2019-02-25T02:12:01.070Z,4.60
2019-02-25T02:14:30.200Z,4.63
2019-02-25T02:16:59.265Z,4.40
2019-02-25T02:19:28.344Z,5.50
2019-02-25T02:21:57.565Z,5.20
2019-02-25T02:24:26.663Z,5.13
2019-02-25T02:26:55.752Z,5.50
2019-02-25T02:29:24.827Z,4.90
2019-02-25T02:31:53.990Z,4.90
2019-02-25T02:34:23.074Z,5.13
2019-02-25T02:36:52.135Z,4.57
2019-02-25T02:39:21.201Z,4.67
2019-02-25T02:42:15.302Z,5.00
2019-02-25T02:44:45.987Z,4.27
2019-02-25T02:47:44.971Z,4.53
2019-02-25T02:50:17.447Z,4.90
2019-02-25T02:52:46.460Z,4.50
2019-02-25T02:55:15.564Z,5.43
2019-02-25T02:57:44.643Z,4.60
2019-02-25T03:00:16.017Z,4.40
2019-02-25T03:02:45.125Z,4.47
2019-02-25T03:05:15.940Z,4.63
2019-02-25T03:07:45.229Z,4.20
2019-02-25T03:10:16.066Z,4.27
2019-02-25T03:12:45.996Z,4.57
2019-02-25T03:15:19.826Z,4.27
2019-02-25T03:17:49.066Z,4.63
2019-02-25T03:20:18.199Z,4.20
2019-02-25T03:22:47.418Z,4.20
2019-02-25T03:25:17.321Z,5.00
2019-02-25T03:27:46.474Z,4.47
2019-02-25T03:30:17.964Z,4.33
2019-02-25T03:32:47.103Z,4.50
2019-02-25T03:35:16.170Z,4.73
2019-02-25T03:37:45.236Z,5.00
2019-02-25T03:40:18.682Z,4.50
2019-02-25T03:42:47.747Z,5.23
2019-02-25T03:45:17.656Z,4.83
2019-02-25T03:47:46.730Z,4.70
2019-02-25T03:50:15.931Z,4.60
2019-02-25T03:52:45.016Z,4.83
2019-02-25T03:55:15.577Z,4.93
2019-02-25T03:57:44.754Z,4.70
2019-02-25T04:00:18.986Z,4.63
2019-02-25T04:02:48.090Z,5.00
2019-02-25T04:05:17.166Z,5.07
2019-02-25T04:07:46.311Z,4.70
2019-02-25T04:10:15.717Z,4.90
2019-02-25T04:12:44.807Z,4.67
2019-02-25T04:15:16.692Z,5.00
2019-02-25T04:17:45.752Z,4.90
2019-02-25T04:20:15.533Z,4.50
2019-02-25T04:22:44.608Z,4.43
2019-02-25T04:25:13.727Z,4.30
2019-02-25T04:27:42.864Z,4.77
2019-02-25T04:30:13.966Z,4.80
2019-02-25T04:32:44.523Z,4.30
2019-02-25T04:35:13.876Z,4.57
2019-02-25T04:37:42.950Z,4.73
2019-02-25T04:40:12.633Z,5.27
2019-02-25T04:42:41.716Z,4.50
2019-02-25T04:45:13.054Z,4.30
2019-02-25T04:47:42.150Z,4.27
2019-02-25T04:50:11.881Z,4.80
2019-02-25T04:52:40.969Z,4.17
2019-02-25T04:55:10.488Z,4.20
2019-02-25T04:57:39.628Z,4.20
2019-02-25T05:00:14.674Z,4.03
2019-02-25T05:02:43.786Z,4.45
2019-02-25T05:05:12.938Z,4.33
2019-02-25T05:07:42.161Z,4.50
2019-02-25T05:10:12.375Z,4.33
2019-02-25T05:12:44.612Z,4.50
2019-02-25T05:15:15.881Z,4.67
2019-02-25T05:17:44.944Z,4.27
2019-02-25T05:20:14.035Z,4.33
2019-02-25T05:22:43.151Z,4.20
2019-02-25T05:25:12.250Z,4.17
2019-02-25T05:27:41.341Z,4.83
2019-02-25T05:30:12.033Z,4.40
2019-02-25T05:32:41.127Z,4.47
2019-02-25T05:35:10.344Z,4.33
2019-02-25T05:37:39.426Z,4.47
2019-02-25T05:40:11.406Z,4.13
2019-02-25T05:42:40.526Z,3.97
2019-02-25T05:45:09.740Z,4.37
2019-02-25T05:47:38.833Z,4.50
2019-02-25T05:50:10.348Z,4.10
2019-02-25T05:52:39.492Z,4.47
2019-02-25T05:55:10.447Z,4.30
2019-02-25T05:57:39.589Z,4.77
2019-02-25T06:00:12.644Z,4.53
2019-02-25T06:02:41.895Z,4.70
2019-02-25T06:05:11.222Z,4.57
2019-02-25T06:07:40.292Z,4.53
2019-02-25T06:10:10.463Z,4.50
2019-02-25T06:12:39.605Z,4.10
2019-02-25T06:15:09.566Z,4.47
2019-02-25T06:17:38.655Z,4.60
2019-02-25T06:20:09.140Z,4.93
2019-02-25T06:22:38.245Z,4.87
2019-02-25T06:25:07.664Z,4.57
2019-02-25T06:27:36.805Z,4.60
2019-02-25T06:30:06.811Z,4.73
2019-02-25T06:32:35.884Z,4.90
2019-02-25T06:35:05.850Z,4.70
2019-02-25T06:37:34.996Z,4.70
2019-02-25T06:40:04.217Z,4.80
2019-02-25T06:42:33.296Z,5.20
2019-02-25T06:45:02.373Z,4.60
2019-02-25T06:47:31.476Z,4.87
2019-02-25T06:50:00.560Z,4.63
2019-02-25T06:52:29.666Z,4.30
2019-02-25T06:54:58.811Z,4.80
2019-02-25T06:57:27.953Z,4.90
2019-02-25T06:59:56.972Z,5.73
2019-02-25T07:02:26.065Z,5.43
2019-02-25T07:05:10.094Z,5.33
2019-02-25T07:07:53.652Z,5.40
2019-02-25T07:10:45.351Z,6.00
2019-02-25T07:13:19.265Z,4.97
2019-02-25T07:16:08.812Z,5.40
2019-02-25T07:18:57.055Z,4.83
2019-02-25T07:21:41.897Z,4.40
2019-02-25T07:24:18.161Z,4.57
2019-02-25T07:27:21.629Z,4.70
2019-02-25T07:30:27.909Z,5.20
2019-02-25T07:33:10.623Z,4.57
2019-02-25T07:35:57.475Z,4.63
2019-02-25T07:38:42.411Z,4.80
2019-02-25T07:41:24.679Z,4.20
2019-02-25T07:44:24.885Z,4.47
2019-02-25T07:47:02.525Z,4.30
2019-02-25T07:49:50.647Z,4.63
2019-02-25T07:52:37.409Z,4.90
2019-02-25T07:55:24.907Z,4.27
2019-02-25T07:58:00.515Z,4.80
2019-02-25T08:00:46.886Z,4.47
2019-02-25T08:03:44.293Z,4.80
2019-02-25T08:06:32.601Z,4.87
2019-02-25T08:09:20.758Z,4.50
2019-02-25T08:11:55.366Z,4.70
2019-02-25T08:14:46.530Z,4.57
2019-02-25T08:17:40.509Z,4.50
2019-02-25T08:20:36.144Z,4.27
2019-02-25T08:23:39.691Z,4.40
2019-02-25T08:26:30.600Z,4.47
2019-02-25T08:29:27.152Z,4.50
2019-02-25T08:32:11.843Z,4.20
2019-02-25T08:35:01.282Z,4.30
2019-02-25T08:37:56.004Z,4.40
2019-02-25T08:41:08.255Z,4.17
2019-02-25T08:43:55.004Z,4.17
2019-02-25T08:46:35.214Z,3.60
2019-02-25T08:49:11.346Z,3.80
2019-02-25T08:51:40.468Z,3.90
2019-02-25T08:54:09.734Z,3.70
2019-02-25T08:56:38.825Z,3.93
2019-02-25T08:59:07.938Z,4.00
2019-02-25T09:01:37.022Z,4.20
2019-02-25T09:04:06.096Z,3.90
2019-02-25T09:06:35.272Z,3.83
2019-02-25T09:09:05.770Z,3.67
2019-02-25T09:11:34.842Z,3.50
2019-02-25T09:14:03.933Z,3.53
2019-02-25T09:16:33.022Z,3.50
2019-02-25T09:19:02.116Z,3.40
2019-02-25T09:21:32.069Z,3.60
2019-02-25T09:24:01.362Z,3.10
2019-02-25T09:26:30.505Z,3.80
2019-02-25T09:28:59.644Z,3.30
2019-02-25T09:31:28.732Z,3.80
2019-02-25T09:33:57.819Z,3.67
2019-02-25T09:36:26.908Z,3.20
2019-02-25T09:38:56.754Z,3.20
2019-02-25T09:41:29.951Z,3.47
2019-02-25T09:43:56.832Z,2.97
2019-02-25T09:46:25.908Z,3.20
2019-02-25T09:48:55.028Z,3.50
2019-02-25T09:51:24.127Z,3.30
2019-02-25T09:53:53.198Z,3.30
2019-02-25T09:56:22.278Z,3.00
2019-02-25T09:58:51.963Z,3.10
2019-02-25T10:01:21.334Z,3.30
2019-02-25T10:03:50.418Z,3.20
2019-02-25T10:06:19.512Z,3.00
2019-02-25T10:08:48.602Z,3.20
2019-02-25T10:11:17.705Z,3.20
2019-02-25T10:13:46.781Z,3.13
2019-02-25T10:16:15.823Z,3.30
2019-02-25T10:18:44.884Z,3.77
2019-02-25T10:21:13.998Z,3.23
2019-02-25T10:23:43.062Z,3.13
2019-02-25T10:26:12.144Z,3.30
2019-02-25T10:28:41.245Z,2.83
2019-02-25T10:31:11.505Z,3.60
2019-02-25T10:33:41.181Z,3.10
2019-02-25T10:36:10.276Z,3.07
2019-02-25T10:38:39.392Z,3.23
2019-02-25T10:41:08.476Z,3.27
2019-02-25T10:43:37.584Z,3.40
2019-02-25T10:46:07.049Z,3.70
2019-02-25T10:48:37.556Z,3.33
2019-02-25T10:51:07.599Z,2.90
2019-02-25T10:53:37.469Z,3.27
2019-02-25T10:56:14.865Z,3.77
2019-02-25T10:58:45.186Z,3.23
2019-02-25T11:01:17.585Z,3.57
2019-02-25T11:03:45.617Z,3.27
2019-02-25T11:06:15.940Z,3.30
2019-02-25T11:08:48.913Z,3.20
2019-02-25T11:11:22.663Z,2.93
2019-02-25T11:13:51.855Z,2.70
2019-02-25T11:16:21.095Z,3.00
2019-02-25T11:18:52.243Z,3.33
2019-02-25T11:21:21.171Z,3.20
2019-02-25T11:23:51.672Z,3.23
2019-02-25T11:26:21.201Z,3.30
2019-02-25T11:28:50.420Z,3.37
2019-02-25T11:31:22.825Z,3.03
2019-02-25T11:33:50.418Z,3.60
2019-02-25T11:36:21.699Z,3.40
2019-02-25T11:38:50.294Z,3.30
2019-02-25T11:41:19.387Z,2.90
2019-02-25T11:43:50.500Z,2.93
2019-02-25T11:46:19.282Z,2.80
2019-02-25T11:48:48.368Z,3.03
2019-02-25T11:51:17.441Z,2.80
2019-02-25T11:53:50.477Z,2.90
2019-02-25T11:56:19.561Z,2.40
2019-02-25T11:58:48.827Z,2.77
2019-02-25T12:01:19.413Z,2.83
2019-02-25T12:03:48.515Z,3.10
2019-02-25T12:06:17.604Z,2.50
2019-02-25T12:08:46.692Z,3.37
2019-02-25T12:11:15.774Z,3.13
2019-02-25T12:13:44.852Z,2.70
2019-02-25T12:16:13.988Z,3.50
2019-02-25T12:18:43.145Z,3.43
2019-02-25T12:21:12.247Z,3.07
2019-02-25T12:23:41.359Z,3.10
2019-02-25T12:26:10.430Z,3.10
2019-02-25T12:28:39.537Z,2.80
2019-02-25T12:31:08.619Z,2.83
2019-02-25T12:33:37.726Z,3.10
2019-02-25T12:36:06.852Z,3.03
2019-02-25T12:38:35.993Z,3.00
2019-02-25T12:41:05.081Z,2.90
2019-02-25T12:43:34.191Z,3.20
2019-02-25T12:46:03.274Z,2.80
2019-02-25T12:48:32.373Z,2.87
2019-02-25T12:51:01.544Z,2.67
2019-02-25T12:53:30.619Z,2.53
2019-02-25T12:55:59.717Z,2.70
2019-02-25T12:58:28.813Z,2.80
2019-02-25T13:00:57.973Z,2.83
2019-02-25T13:03:27.051Z,2.73
2019-02-25T13:05:56.166Z,2.37
2019-02-25T13:08:25.247Z,2.63
2019-02-25T13:10:54.353Z,2.40
2019-02-25T13:13:23.447Z,2.97
2019-02-25T13:15:52.563Z,2.53
2019-02-25T13:18:21.681Z,2.40
2019-02-25T13:20:50.855Z,2.53
2019-02-25T13:23:20.029Z,2.30
2019-02-25T13:25:49.117Z,2.10
2019-02-25T13:28:18.181Z,2.27
2019-02-25T13:30:47.292Z,1.93
2019-02-25T13:33:16.357Z,2.10
2019-02-25T13:35:45.582Z,1.73
2019-02-25T13:38:14.969Z,1.87
2019-02-25T13:40:44.174Z,1.87
2019-02-25T13:43:13.369Z,2.17
2019-02-25T13:45:42.531Z,1.80
2019-02-25T13:48:11.732Z,1.90
2019-02-25T13:50:40.961Z,2.27
2019-02-25T13:53:10.137Z,1.80
2019-02-25T13:55:39.784Z,1.87
2019-02-25T13:58:08.980Z,1.90
2019-02-25T14:00:38.384Z,1.73
2019-02-25T14:03:07.577Z,1.90
2019-02-25T14:05:36.745Z,1.83
2019-02-25T14:08:06.108Z,1.57
2019-02-25T14:10:35.407Z,1.73
2019-02-25T14:13:04.847Z,1.63
2019-02-25T14:15:34.224Z,1.40
2019-02-25T14:18:03.555Z,1.50
2019-02-25T14:20:32.834Z,1.80
2019-02-25T14:23:01.989Z,1.67
2019-02-25T14:25:31.375Z,1.73
2019-02-25T14:28:02.732Z,2.00
2019-02-25T14:30:33.392Z,1.50
2019-02-25T14:33:02.424Z,2.03
2019-02-25T14:35:31.616Z,1.63
2019-02-25T14:38:07.272Z,1.73
2019-02-25T14:40:32.671Z,1.60
2019-02-25T14:43:03.979Z,1.70
2019-02-25T14:45:34.419Z,1.47
2019-02-25T14:48:07.539Z,1.80
2019-02-25T14:50:36.303Z,1.77
2019-02-25T14:53:08.419Z,1.60
2019-02-25T14:55:36.620Z,1.50
2019-02-25T14:58:07.382Z,1.67
2019-02-25T15:00:38.165Z,1.67
2019-02-25T15:03:07.428Z,1.40
2019-02-25T15:05:36.498Z,1.33
2019-02-25T15:08:05.682Z,1.40
2019-02-25T15:10:36.320Z,1.30
2019-02-25T15:13:06.689Z,1.30
2019-02-25T15:15:37.039Z,1.13
2019-02-25T15:18:06.770Z,1.70
2019-02-25T15:20:36.184Z,1.13
2019-02-25T15:23:07.407Z,1.30
2019-02-25T15:25:40.390Z,1.37
2019-02-25T15:28:11.386Z,1.40
2019-02-25T15:30:38.476Z,1.60
2019-02-25T15:33:07.936Z,1.43
2019-02-25T15:35:38.925Z,1.80
2019-02-25T15:38:07.984Z,1.27
2019-02-25T15:40:37.161Z,1.50
2019-02-25T15:43:13.235Z,1.50
2019-02-25T15:45:42.731Z,1.40
2019-02-25T15:48:16.740Z,1.30
2019-02-25T15:50:47.992Z,1.40
2019-02-25T15:53:16.760Z,1.50
2019-02-25T15:55:45.893Z,1.20
2019-02-25T15:58:15.651Z,1.10
2019-02-25T16:00:45.685Z,1.30
2019-02-25T16:03:16.345Z,1.60
2019-02-25T16:05:45.845Z,1.77
2019-02-25T16:08:17.111Z,1.10
2019-02-25T16:10:46.977Z,1.50
2019-02-25T16:13:17.260Z,1.60
2019-02-25T16:15:46.564Z,1.30
2019-02-25T16:18:16.001Z,1.40
2019-02-25T16:20:46.237Z,1.20
2019-02-25T16:23:15.602Z,1.60
2019-02-25T16:25:46.222Z,1.30
2019-02-25T16:28:17.473Z,1.43
2019-02-25T16:30:47.420Z,1.50
2019-02-25T16:33:17.688Z,1.47
2019-02-25T16:35:46.950Z,1.40
2019-02-25T16:38:16.142Z,1.50
2019-02-25T16:40:45.343Z,1.33
2019-02-25T16:43:14.942Z,1.50
2019-02-25T16:45:46.874Z,1.40
2019-02-25T16:48:15.011Z,1.60
2019-02-25T16:50:46.298Z,1.40
2019-02-25T16:53:16.079Z,1.53
2019-02-25T16:55:47.002Z,1.70
2019-02-25T16:58:16.771Z,1.40
2019-02-25T17:00:45.964Z,1.60
2019-02-25T17:03:16.107Z,1.50
2019-02-25T17:05:47.667Z,1.70
2019-02-25T17:08:19.348Z,1.73
2019-02-25T17:10:49.646Z,1.83
2019-02-25T17:13:19.678Z,1.83
2019-02-25T17:15:48.872Z,1.40
2019-02-25T17:18:18.146Z,1.50
2019-02-25T17:20:49.793Z,1.70
2019-02-25T17:23:18.180Z,1.63
2019-02-25T17:25:47.366Z,1.80
2019-02-25T17:28:17.535Z,1.57
2019-02-25T17:30:49.533Z,1.57
2019-02-25T17:33:18.513Z,1.70
2019-02-25T17:35:49.693Z,2.10
2019-02-25T17:38:20.931Z,2.03
2019-02-25T17:40:49.995Z,1.83
2019-02-25T17:43:20.211Z,1.80
2019-02-25T17:45:49.434Z,2.00
2019-02-25T17:48:21.024Z,2.00
2019-02-25T17:50:49.946Z,2.40
2019-02-25T17:53:19.220Z,1.73
2019-02-25T17:55:48.946Z,2.40
2019-02-25T17:58:19.786Z,2.40
2019-02-25T18:00:50.871Z,2.73
2019-02-25T18:03:21.699Z,2.53
2019-02-25T18:05:51.159Z,2.43
2019-02-25T18:08:20.480Z,2.97
2019-02-25T18:10:50.550Z,2.60
2019-02-25T18:13:21.941Z,3.07
2019-02-25T18:15:53.514Z,3.30
2019-02-25T18:18:24.414Z,2.83
2019-02-25T18:20:53.725Z,3.27
2019-02-25T18:23:22.940Z,2.93
2019-02-25T18:25:53.640Z,3.20
2019-02-25T18:28:23.055Z,3.13
2019-02-25T18:30:52.543Z,3.50
2019-02-25T18:33:23.064Z,3.47
2019-02-25T18:35:52.584Z,3.63
2019-02-25T18:38:23.290Z,3.63
2019-02-25T18:40:52.564Z,3.67
2019-02-25T18:43:22.578Z,3.60
2019-02-25T18:45:52.552Z,3.43
2019-02-25T18:48:23.283Z,3.47
2019-02-25T18:50:55.143Z,3.40
2019-02-25T18:53:24.613Z,3.60
2019-02-25T18:55:55.020Z,3.67
2019-02-25T18:58:25.168Z,3.43
2019-02-25T19:00:54.533Z,3.50
2019-02-25T19:03:24.969Z,3.80
2019-02-25T19:05:55.452Z,3.67
2019-02-25T19:08:26.767Z,3.90
2019-02-25T19:10:57.307Z,4.00
2019-02-25T19:13:32.094Z,4.40
2019-02-25T19:16:01.648Z,4.60
2019-02-25T19:18:32.088Z,4.43
2019-02-25T19:21:02.483Z,4.03
2019-02-25T19:23:34.933Z,4.23
2019-02-25T19:26:03.690Z,4.27
2019-02-25T19:28:32.880Z,4.20
2019-02-25T19:31:03.671Z,4.50
2019-02-25T19:33:36.310Z,4.23
2019-02-25T19:36:05.059Z,4.70
2019-02-25T19:38:36.367Z,4.67
2019-02-25T19:41:05.853Z,4.73
2019-02-25T19:43:35.119Z,4.93
2019-02-25T19:46:06.399Z,4.57
2019-02-25T19:48:35.657Z,4.20
2019-02-25T19:51:06.237Z,5.00
2019-02-25T19:53:36.595Z,4.97
2019-02-25T19:56:06.368Z,5.10
2019-02-25T19:58:36.452Z,4.83
2019-02-25T20:01:08.483Z,4.70
2019-02-25T20:03:38.136Z,4.90
2019-02-25T20:06:11.317Z,4.97
2019-02-25T20:08:39.327Z,5.13
2019-02-25T20:11:09.716Z,5.37
2019-02-25T20:13:40.570Z,5.93
2019-02-25T20:16:13.403Z,5.20
2019-02-25T20:18:41.955Z,5.50
2019-02-25T20:21:11.302Z,5.20
2019-02-25T20:23:40.386Z,5.93
2019-02-25T20:26:11.485Z,5.40
2019-02-25T20:28:41.253Z,5.27
2019-02-25T20:31:12.734Z,5.40
2019-02-25T20:33:42.139Z,5.53
2019-02-25T20:36:11.207Z,5.00
2019-02-25T20:38:40.359Z,5.23
2019-02-25T20:41:09.877Z,5.40
2019-02-25T20:43:39.149Z,5.57
2019-02-25T20:46:08.726Z,5.07
2019-02-25T20:48:37.965Z,5.43
2019-02-25T20:51:07.796Z,5.57
2019-02-25T20:53:37.980Z,5.90
2019-02-25T20:56:07.151Z,5.57
2019-02-25T20:58:38.311Z,5.50
2019-02-25T21:01:09.194Z,5.43
2019-02-25T21:03:41.516Z,5.53
2019-02-25T21:06:09.826Z,5.43
2019-02-25T21:08:39.984Z,5.73
2019-02-25T21:11:11.092Z,5.20
2019-02-25T21:13:41.332Z,5.90
2019-02-25T21:16:10.659Z,5.37
2019-02-25T21:18:39.857Z,6.00
2019-02-25T21:21:10.119Z,5.67
2019-02-25T21:23:39.831Z,5.40
2019-02-25T21:26:11.061Z,5.80
2019-02-25T21:28:40.504Z,6.10
2019-02-25T21:31:13.795Z,6.17
2019-02-25T21:33:44.987Z,5.90
2019-02-25T21:36:12.363Z,6.27
2019-02-25T21:38:41.457Z,6.10
2019-02-25T21:41:11.182Z,5.90
2019-02-25T21:43:43.367Z,6.40
2019-02-25T21:46:15.829Z,6.07
2019-02-25T21:48:43.127Z,6.23
2019-02-25T21:51:14.230Z,6.23
2019-02-25T21:53:42.996Z,6.10
2019-02-25T21:56:12.095Z,6.10
2019-02-25T21:58:42.903Z,6.83
2019-02-25T22:01:12.027Z,6.43
2019-02-25T22:03:41.726Z,5.70
2019-02-25T22:06:12.049Z,6.30
2019-02-25T22:08:41.141Z,5.97
2019-02-25T22:11:13.085Z,6.67
2019-02-25T22:13:41.145Z,6.17
2019-02-25T22:16:10.238Z,5.90
2019-02-25T22:18:39.327Z,6.87
2019-02-25T22:21:09.446Z,6.20
2019-02-25T22:23:39.263Z,6.60
2019-02-25T22:26:08.351Z,6.47
2019-02-25T22:28:39.329Z,6.20
2019-02-25T22:31:10.613Z,6.10
2019-02-25T22:33:39.132Z,6.03
2019-02-25T22:36:08.243Z,6.57
2019-02-25T22:38:37.355Z,6.70
2019-02-25T22:41:06.504Z,6.63
2019-02-25T22:43:36.886Z,6.50
2019-02-25T22:46:07.671Z,6.33
2019-02-25T22:48:37.569Z,6.53
2019-02-25T22:51:08.045Z,6.57
2019-02-25T22:53:37.155Z,6.90
2019-02-25T22:56:09.089Z,6.70
2019-02-25T22:58:39.047Z,7.13
2019-02-25T23:01:17.501Z,6.63
2019-02-25T23:03:45.556Z,6.53
2019-02-25T23:06:15.760Z,6.70
2019-02-25T23:08:48.348Z,6.33
2019-02-25T23:11:19.022Z,6.03
2019-02-25T23:13:48.649Z,6.03
2019-02-25T23:16:20.442Z,6.27
2019-02-25T23:18:49.178Z,6.17
2019-02-25T23:21:23.816Z,6.63
2019-02-25T23:23:51.300Z,6.30
2019-02-25T23:26:21.647Z,5.93
2019-02-25T23:28:51.588Z,6.50
2019-02-25T23:31:21.799Z,6.50
2019-02-25T23:33:51.275Z,6.17
2019-02-25T23:36:22.230Z,6.00
2019-02-25T23:38:53.074Z,5.53
2019-02-25T23:41:23.329Z,6.23
2019-02-25T23:43:52.421Z,6.70
2019-02-25T23:46:25.231Z,6.80
2019-02-25T23:48:52.310Z,6.00
2019-02-25T23:51:23.377Z,6.30
2019-02-25T23:53:53.674Z,6.97
2019-02-25T23:56:25.143Z,6.63
2019-02-25T23:58:54.051Z,6.67
